Winchester, ID

8:21 AM PDT on October 30, 2014 (GMT -0700)
Walla Walla Regional | Change Station
CLOSE
Current Station
Airport
Location: Walla Walla,
Elevation: 1204 ft
Nearby Weather Stations

Elev 1204 ft 46.09 °N, 118.29 °W | Updated 17 minutes ago

Overcast
Overcast
50 °F
Feels Like 50 °F
N
7
Wind Variable Wind from South

Today
High -- | Low -- °F
--% Chance of Precip.
Yesterday
High -- | Low -- °F
Precip. -- in
7:24 AM 5:34 PM
Waxing Crescent, 45% visible
Pressure 30.06 in
Visibility 1.2 miles
Clouds Scattered Clouds 200 ft
Overcast 10000 ft
Dew Point 48 °F
Humidity 93%
Rainfall 0.00 in
Snow Depth Not available.
UV 0 out of 12
Pollen 2.20 out of 12
Air Quality Not available.
Flu Activity Not available.
SPECI KALW 301504Z 17006KT 1 1/4SM BR SCT002 OVC100 10/09 A3006 RMK AO2 T01000089

More Conditions Fewer Conditions

Pressure 30.06 in
Visibility 1.2 miles
Clouds Scattered Clouds 200 ft
Overcast 10000 ft
Dew Point 48 °F
Humidity 93%
Rainfall 0.00 in
Snow Depth Not available.
UV 0 out of 12
Pollen 2.20 out of 12
Air Quality Not available.
Flu Activity Not available.
SPECI KALW 301504Z 17006KT 1 1/4SM BR SCT002 OVC100 10/09 A3006 RMK AO2 T01000089

More Conditions Fewer Conditions

10-Day Weather Forecast

Almanac

Astronomy

Oct. 30, 2014 Rise Set
Actual Time
Civil Twilight
Nautical Twilight
Astronomical Twilight
Moon
Length of Visible Light
Length of Day
Tomorrow will be .
, % of the Moon is Illuminated

Today's Extremes

State Highs State Lows

Community

WunderPhotos

Upload Photos

1,766,386 photos uploaded!

WunderBlogs® & News

Nearby

Air Quality

  Air Quality AQ Index Pollutant
Not available.

Snow Depth

Station Depth Elevation

Earthquake Activity

City Distance Mag. Time & Date
Minimum magnitude displayed is 2.5.

Coastal Water Temperatures

Place Temperature

Nearby Weather Stations